sensor_id;sensor_type;location;lat;lon;timestamp;temperature;humidity
52024;DHT22;38038;45.922;13.604;2023-09-30T00:01:02;17.60;99.90
52024;DHT22;38038;45.922;13.604;2023-09-30T00:03:28;17.60;99.90
52024;DHT22;38038;45.922;13.604;2023-09-30T00:05:54;17.60;99.90
52024;DHT22;38038;45.922;13.604;2023-09-30T00:08:20;17.30;99.90
52024;DHT22;38038;45.922;13.604;2023-09-30T00:10:46;17.10;99.90
52024;DHT22;38038;45.922;13.604;2023-09-30T00:13:12;16.90;99.90
52024;DHT22;38038;45.922;13.604;2023-09-30T00:15:38;17.00;99.90
52024;DHT22;38038;45.922;13.604;2023-09-30T00:18:04;17.20;99.90
52024;DHT22;38038;45.922;13.604;2023-09-30T00:20:31;17.30;99.90
52024;DHT22;38038;45.922;13.604;2023-09-30T00:22:57;17.40;99.90
52024;DHT22;38038;45.922;13.604;2023-09-30T00:25:23;17.40;99.90
52024;DHT22;38038;45.922;13.604;2023-09-30T00:27:49;17.40;99.90
52024;DHT22;38038;45.922;13.604;2023-09-30T00:30:15;17.50;99.90
52024;DHT22;38038;45.922;13.604;2023-09-30T00:32:40;17.50;99.90
52024;DHT22;38038;45.922;13.604;2023-09-30T00:35:07;17.60;99.90
52024;DHT22;38038;45.922;13.604;2023-09-30T00:37:42;17.60;99.90
52024;DHT22;38038;45.922;13.604;2023-09-30T00:40:08;17.60;99.90
52024;DHT22;38038;45.922;13.604;2023-09-30T00:42:41;17.60;99.90
52024;DHT22;38038;45.922;13.604;2023-09-30T00:45:07;17.40;99.90
52024;DHT22;38038;45.922;13.604;2023-09-30T00:47:37;17.20;99.90
52024;DHT22;38038;45.922;13.604;2023-09-30T00:50:03;17.10;99.90
52024;DHT22;38038;45.922;13.604;2023-09-30T00:52:32;16.80;99.90
52024;DHT22;38038;45.922;13.604;2023-09-30T00:54:58;16.30;99.90
52024;DHT22;38038;45.922;13.604;2023-09-30T00:57:25;16.00;99.90
52024;DHT22;38038;45.922;13.604;2023-09-30T00:59:51;15.80;99.90
52024;DHT22;38038;45.922;13.604;2023-09-30T01:02:20;15.70;99.90
52024;DHT22;38038;45.922;13.604;2023-09-30T01:04:48;15.80;99.90
52024;DHT22;38038;45.922;13.604;2023-09-30T01:07:14;15.80;99.90
52024;DHT22;38038;45.922;13.604;2023-09-30T01:09:39;15.70;99.90
52024;DHT22;38038;45.922;13.604;2023-09-30T01:12:05;15.60;99.90
52024;DHT22;38038;45.922;13.604;2023-09-30T01:14:34;15.40;99.90
52024;DHT22;38038;45.922;13.604;2023-09-30T01:17:09;15.40;99.90
52024;DHT22;38038;45.922;13.604;2023-09-30T01:19:39;15.50;99.90
52024;DHT22;38038;45.922;13.604;2023-09-30T01:22:04;15.70;99.90
52024;DHT22;38038;45.922;13.604;2023-09-30T01:24:30;15.80;99.90
52024;DHT22;38038;45.922;13.604;2023-09-30T01:26:56;15.80;99.90
52024;DHT22;38038;45.922;13.604;2023-09-30T01:29:23;16.10;99.90
52024;DHT22;38038;45.922;13.604;2023-09-30T01:31:51;16.30;99.90
52024;DHT22;38038;45.922;13.604;2023-09-30T01:34:17;16.40;99.90
52024;DHT22;38038;45.922;13.604;2023-09-30T01:36:43;16.60;99.90
52024;DHT22;38038;45.922;13.604;2023-09-30T01:39:10;16.80;99.90
52024;DHT22;38038;45.922;13.604;2023-09-30T01:41:40;16.80;99.90
52024;DHT22;38038;45.922;13.604;2023-09-30T01:44:06;16.40;99.90
52024;DHT22;38038;45.922;13.604;2023-09-30T01:46:32;16.00;99.90
52024;DHT22;38038;45.922;13.604;2023-09-30T01:48:58;15.70;99.90
52024;DHT22;38038;45.922;13.604;2023-09-30T01:51:24;15.60;99.90
52024;DHT22;38038;45.922;13.604;2023-09-30T01:53:50;15.60;99.90
52024;DHT22;38038;45.922;13.604;2023-09-30T01:56:16;15.50;99.90
52024;DHT22;38038;45.922;13.604;2023-09-30T01:58:41;15.40;99.90
52024;DHT22;38038;45.922;13.604;2023-09-30T02:01:07;15.30;99.90
52024;DHT22;38038;45.922;13.604;2023-09-30T02:03:33;15.10;99.90
52024;DHT22;38038;45.922;13.604;2023-09-30T02:05:59;15.00;99.90
52024;DHT22;38038;45.922;13.604;2023-09-30T02:08:25;14.90;99.90
52024;DHT22;38038;45.922;13.604;2023-09-30T02:10:51;14.90;99.90
52024;DHT22;38038;45.922;13.604;2023-09-30T02:13:17;15.00;99.90
52024;DHT22;38038;45.922;13.604;2023-09-30T02:15:43;15.10;99.90
52024;DHT22;38038;45.922;13.604;2023-09-30T02:18:09;15.10;99.90
52024;DHT22;38038;45.922;13.604;2023-09-30T02:20:38;15.20;99.90
52024;DHT22;38038;45.922;13.604;2023-09-30T02:23:10;15.20;99.90
52024;DHT22;38038;45.922;13.604;2023-09-30T02:25:39;15.30;99.90
52024;DHT22;38038;45.922;13.604;2023-09-30T02:28:06;15.40;99.90
52024;DHT22;38038;45.922;13.604;2023-09-30T02:30:32;15.50;99.90
52024;DHT22;38038;45.922;13.604;2023-09-30T02:32:58;15.50;99.90
52024;DHT22;38038;45.922;13.604;2023-09-30T02:35:25;15.30;99.90
52024;DHT22;38038;45.922;13.604;2023-09-30T02:37:51;15.30;99.90
52024;DHT22;38038;45.922;13.604;2023-09-30T02:40:18;15.30;99.90
52024;DHT22;38038;45.922;13.604;2023-09-30T02:42:45;15.20;99.90
52024;DHT22;38038;45.922;13.604;2023-09-30T02:45:12;15.20;99.90
52024;DHT22;38038;45.922;13.604;2023-09-30T02:47:38;15.10;99.90
52024;DHT22;38038;45.922;13.604;2023-09-30T02:50:06;15.10;99.90
52024;DHT22;38038;45.922;13.604;2023-09-30T02:52:34;15.10;99.90
52024;DHT22;38038;45.922;13.604;2023-09-30T02:54:59;15.20;99.90
52024;DHT22;38038;45.922;13.604;2023-09-30T02:57:25;15.20;99.90
52024;DHT22;38038;45.922;13.604;2023-09-30T02:59:53;15.40;99.90
52024;DHT22;38038;45.922;13.604;2023-09-30T03:02:20;15.40;99.90
52024;DHT22;38038;45.922;13.604;2023-09-30T03:04:47;15.60;99.90
52024;DHT22;38038;45.922;13.604;2023-09-30T03:07:17;15.70;99.90
52024;DHT22;38038;45.922;13.604;2023-09-30T03:09:43;15.80;99.90
52024;DHT22;38038;45.922;13.604;2023-09-30T03:12:09;15.90;99.90
52024;DHT22;38038;45.922;13.604;2023-09-30T03:14:35;15.80;99.90
52024;DHT22;38038;45.922;13.604;2023-09-30T03:17:00;15.50;99.90
52024;DHT22;38038;45.922;13.604;2023-09-30T03:19:26;15.40;99.90
52024;DHT22;38038;45.922;13.604;2023-09-30T03:21:52;15.40;99.90
52024;DHT22;38038;45.922;13.604;2023-09-30T03:24:18;15.20;99.90
52024;DHT22;38038;45.922;13.604;2023-09-30T03:26:43;15.10;99.90
52024;DHT22;38038;45.922;13.604;2023-09-30T03:29:10;15.00;99.90
52024;DHT22;38038;45.922;13.604;2023-09-30T03:31:36;14.70;99.90
52024;DHT22;38038;45.922;13.604;2023-09-30T03:34:05;14.50;99.90
52024;DHT22;38038;45.922;13.604;2023-09-30T03:36:31;14.20;99.90
52024;DHT22;38038;45.922;13.604;2023-09-30T03:38:57;14.00;99.90
52024;DHT22;38038;45.922;13.604;2023-09-30T03:41:30;14.00;99.90
52024;DHT22;38038;45.922;13.604;2023-09-30T03:43:56;13.90;99.90
52024;DHT22;38038;45.922;13.604;2023-09-30T03:46:22;13.80;99.90
52024;DHT22;38038;45.922;13.604;2023-09-30T03:48:48;13.90;99.90
52024;DHT22;38038;45.922;13.604;2023-09-30T03:51:14;14.00;99.90
52024;DHT22;38038;45.922;13.604;2023-09-30T03:53:44;14.20;99.90
52024;DHT22;38038;45.922;13.604;2023-09-30T03:56:11;14.30;99.90
52024;DHT22;38038;45.922;13.604;2023-09-30T03:58:38;14.40;99.90
52024;DHT22;38038;45.922;13.604;2023-09-30T04:01:04;14.30;99.90
52024;DHT22;38038;45.922;13.604;2023-09-30T04:03:30;14.30;99.90
52024;DHT22;38038;45.922;13.604;2023-09-30T04:05:58;14.30;99.90
52024;DHT22;38038;45.922;13.604;2023-09-30T04:08:24;14.40;99.90
52024;DHT22;38038;45.922;13.604;2023-09-30T04:10:50;14.40;99.90
52024;DHT22;38038;45.922;13.604;2023-09-30T04:13:16;14.40;99.90
52024;DHT22;38038;45.922;13.604;2023-09-30T04:15:43;14.40;99.90
52024;DHT22;38038;45.922;13.604;2023-09-30T04:18:10;14.50;99.90
52024;DHT22;38038;45.922;13.604;2023-09-30T04:20:37;14.30;99.90
52024;DHT22;38038;45.922;13.604;2023-09-30T04:23:06;14.40;99.90
52024;DHT22;38038;45.922;13.604;2023-09-30T04:25:32;14.40;99.90
52024;DHT22;38038;45.922;13.604;2023-09-30T04:27:58;14.50;99.90
52024;DHT22;38038;45.922;13.604;2023-09-30T04:30:24;14.50;99.90
52024;DHT22;38038;45.922;13.604;2023-09-30T04:32:50;14.50;99.90
52024;DHT22;38038;45.922;13.604;2023-09-30T04:35:16;14.50;99.90
52024;DHT22;38038;45.922;13.604;2023-09-30T04:37:41;14.60;99.90
52024;DHT22;38038;45.922;13.604;2023-09-30T04:40:09;14.50;99.90
52024;DHT22;38038;45.922;13.604;2023-09-30T04:42:44;14.60;99.90
52024;DHT22;38038;45.922;13.604;2023-09-30T04:45:10;14.60;99.90
52024;DHT22;38038;45.922;13.604;2023-09-30T04:47:36;14.60;99.90
52024;DHT22;38038;45.922;13.604;2023-09-30T04:50:06;14.60;99.90
52024;DHT22;38038;45.922;13.604;2023-09-30T04:52:36;14.60;99.90
52024;DHT22;38038;45.922;13.604;2023-09-30T04:55:02;14.70;99.90
52024;DHT22;38038;45.922;13.604;2023-09-30T04:57:31;14.70;99.90
52024;DHT22;38038;45.922;13.604;2023-09-30T04:59:57;14.60;99.90
52024;DHT22;38038;45.922;13.604;2023-09-30T05:02:24;14.60;99.90
52024;DHT22;38038;45.922;13.604;2023-09-30T05:04:50;14.60;99.90
52024;DHT22;38038;45.922;13.604;2023-09-30T05:07:16;14.60;99.90
52024;DHT22;38038;45.922;13.604;2023-09-30T05:09:42;14.50;99.90
52024;DHT22;38038;45.922;13.604;2023-09-30T05:12:08;14.50;99.90
52024;DHT22;38038;45.922;13.604;2023-09-30T05:14:35;14.60;99.90
52024;DHT22;38038;45.922;13.604;2023-09-30T05:17:02;14.40;99.90
52024;DHT22;38038;45.922;13.604;2023-09-30T05:19:30;14.20;99.90
52024;DHT22;38038;45.922;13.604;2023-09-30T05:21:58;14.10;99.90
52024;DHT22;38038;45.922;13.604;2023-09-30T05:24:23;14.00;99.90
52024;DHT22;38038;45.922;13.604;2023-09-30T05:26:49;14.00;99.90
52024;DHT22;38038;45.922;13.604;2023-09-30T05:29:15;13.90;99.90
52024;DHT22;38038;45.922;13.604;2023-09-30T05:31:42;14.00;99.90
52024;DHT22;38038;45.922;13.604;2023-09-30T05:34:08;14.00;99.90
52024;DHT22;38038;45.922;13.604;2023-09-30T05:36:33;14.00;99.90
52024;DHT22;38038;45.922;13.604;2023-09-30T05:39:00;14.00;99.90
52024;DHT22;38038;45.922;13.604;2023-09-30T05:41:25;14.10;99.90
52024;DHT22;38038;45.922;13.604;2023-09-30T05:43:53;14.30;99.90
52024;DHT22;38038;45.922;13.604;2023-09-30T05:46:19;14.40;99.90
52024;DHT22;38038;45.922;13.604;2023-09-30T05:48:44;14.50;99.90
52024;DHT22;38038;45.922;13.604;2023-09-30T05:51:10;14.70;99.90
52024;DHT22;38038;45.922;13.604;2023-09-30T05:53:40;14.70;99.90
52024;DHT22;38038;45.922;13.604;2023-09-30T05:56:07;14.80;99.90
52024;DHT22;38038;45.922;13.604;2023-09-30T05:58:33;14.90;99.90
52024;DHT22;38038;45.922;13.604;2023-09-30T06:00:58;15.00;99.90
52024;DHT22;38038;45.922;13.604;2023-09-30T06:03:26;15.00;99.90
52024;DHT22;38038;45.922;13.604;2023-09-30T06:05:54;15.00;99.90
52024;DHT22;38038;45.922;13.604;2023-09-30T06:08:21;15.10;99.90
52024;DHT22;38038;45.922;13.604;2023-09-30T06:10:47;15.20;99.90
52024;DHT22;38038;45.922;13.604;2023-09-30T06:13:13;15.30;99.90
52024;DHT22;38038;45.922;13.604;2023-09-30T06:15:40;15.50;99.90
52024;DHT22;38038;45.922;13.604;2023-09-30T06:18:07;15.70;99.90
52024;DHT22;38038;45.922;13.604;2023-09-30T06:20:33;15.80;99.90
52024;DHT22;38038;45.922;13.604;2023-09-30T06:23:00;16.00;99.90
52024;DHT22;38038;45.922;13.604;2023-09-30T06:25:28;16.10;99.90
52024;DHT22;38038;45.922;13.604;2023-09-30T06:27:56;16.30;99.90
52024;DHT22;38038;45.922;13.604;2023-09-30T06:30:22;16.30;99.90
52024;DHT22;38038;45.922;13.604;2023-09-30T06:32:55;16.40;99.90
52024;DHT22;38038;45.922;13.604;2023-09-30T06:35:21;16.50;99.90
52024;DHT22;38038;45.922;13.604;2023-09-30T06:37:48;16.60;99.90
52024;DHT22;38038;45.922;13.604;2023-09-30T06:40:14;16.70;99.90
52024;DHT22;38038;45.922;13.604;2023-09-30T06:42:40;16.70;99.90
52024;DHT22;38038;45.922;13.604;2023-09-30T06:45:07;16.80;99.90
52024;DHT22;38038;45.922;13.604;2023-09-30T06:47:33;16.90;99.90
52024;DHT22;38038;45.922;13.604;2023-09-30T06:50:04;16.90;99.90
52024;DHT22;38038;45.922;13.604;2023-09-30T06:52:38;17.00;99.90
52024;DHT22;38038;45.922;13.604;2023-09-30T06:55:05;17.10;99.90
52024;DHT22;38038;45.922;13.604;2023-09-30T06:57:37;17.20;99.90
52024;DHT22;38038;45.922;13.604;2023-09-30T07:00:13;17.30;99.90
52024;DHT22;38038;45.922;13.604;2023-09-30T07:02:39;17.30;99.90
52024;DHT22;38038;45.922;13.604;2023-09-30T07:05:12;17.40;99.90
52024;DHT22;38038;45.922;13.604;2023-09-30T07:07:38;17.50;99.90
52024;DHT22;38038;45.922;13.604;2023-09-30T07:10:08;17.70;99.90
52024;DHT22;38038;45.922;13.604;2023-09-30T07:12:34;17.90;99.90
52024;DHT22;38038;45.922;13.604;2023-09-30T07:15:05;18.00;99.90
52024;DHT22;38038;45.922;13.604;2023-09-30T07:17:31;18.00;99.90
52024;DHT22;38038;45.922;13.604;2023-09-30T07:19:57;18.10;99.90
52024;DHT22;38038;45.922;13.604;2023-09-30T07:22:23;18.30;99.90
52024;DHT22;38038;45.922;13.604;2023-09-30T07:24:49;18.40;99.90
52024;DHT22;38038;45.922;13.604;2023-09-30T07:27:14;18.70;99.90
52024;DHT22;38038;45.922;13.604;2023-09-30T07:29:40;18.90;99.90
52024;DHT22;38038;45.922;13.604;2023-09-30T07:32:06;19.10;99.90
52024;DHT22;38038;45.922;13.604;2023-09-30T07:34:32;19.30;99.90
52024;DHT22;38038;45.922;13.604;2023-09-30T07:36:58;19.50;99.90
52024;DHT22;38038;45.922;13.604;2023-09-30T07:39:24;19.50;99.90
52024;DHT22;38038;45.922;13.604;2023-09-30T07:41:49;19.70;99.90
52024;DHT22;38038;45.922;13.604;2023-09-30T07:44:15;19.90;99.90
52024;DHT22;38038;45.922;13.604;2023-09-30T07:46:41;20.10;99.90
52024;DHT22;38038;45.922;13.604;2023-09-30T07:49:11;20.30;99.90
52024;DHT22;38038;45.922;13.604;2023-09-30T07:51:36;20.40;99.90
52024;DHT22;38038;45.922;13.604;2023-09-30T07:54:05;20.30;99.90
52024;DHT22;38038;45.922;13.604;2023-09-30T07:56:31;20.30;99.90
52024;DHT22;38038;45.922;13.604;2023-09-30T07:58:57;20.40;99.90
52024;DHT22;38038;45.922;13.604;2023-09-30T08:01:23;20.50;99.90
52024;DHT22;38038;45.922;13.604;2023-09-30T08:03:48;20.50;99.90
52024;DHT22;38038;45.922;13.604;2023-09-30T08:06:14;20.80;99.90
52024;DHT22;38038;45.922;13.604;2023-09-30T08:08:40;20.90;99.90
52024;DHT22;38038;45.922;13.604;2023-09-30T08:11:06;21.20;99.90
52024;DHT22;38038;45.922;13.604;2023-09-30T08:13:32;21.20;99.90
52024;DHT22;38038;45.922;13.604;2023-09-30T08:16:01;21.00;99.90
52024;DHT22;38038;45.922;13.604;2023-09-30T08:18:27;21.10;99.90
52024;DHT22;38038;45.922;13.604;2023-09-30T08:20:52;21.00;99.90
52024;DHT22;38038;45.922;13.604;2023-09-30T08:23:18;21.00;99.90
52024;DHT22;38038;45.922;13.604;2023-09-30T08:25:44;21.20;99.90
52024;DHT22;38038;45.922;13.604;2023-09-30T08:28:10;21.10;99.90
52024;DHT22;38038;45.922;13.604;2023-09-30T08:30:37;21.30;99.90
52024;DHT22;38038;45.922;13.604;2023-09-30T08:33:03;21.40;99.90
52024;DHT22;38038;45.922;13.604;2023-09-30T08:35:30;21.50;99.90
52024;DHT22;38038;45.922;13.604;2023-09-30T08:37:57;21.60;99.90
52024;DHT22;38038;45.922;13.604;2023-09-30T08:40:23;21.50;99.90
52024;DHT22;38038;45.922;13.604;2023-09-30T08:42:52;21.60;99.90
52024;DHT22;38038;45.922;13.604;2023-09-30T08:45:18;21.60;99.90
52024;DHT22;38038;45.922;13.604;2023-09-30T08:47:45;21.70;99.90
52024;DHT22;38038;45.922;13.604;2023-09-30T08:50:12;21.70;99.90
52024;DHT22;38038;45.922;13.604;2023-09-30T08:52:40;21.50;99.90
52024;DHT22;38038;45.922;13.604;2023-09-30T08:55:08;21.40;99.90
52024;DHT22;38038;45.922;13.604;2023-09-30T08:57:36;21.30;99.90
52024;DHT22;38038;45.922;13.604;2023-09-30T09:00:03;21.50;99.90
52024;DHT22;38038;45.922;13.604;2023-09-30T09:02:29;21.40;99.90
52024;DHT22;38038;45.922;13.604;2023-09-30T09:04:55;21.10;99.90
52024;DHT22;38038;45.922;13.604;2023-09-30T09:07:20;21.10;99.90
52024;DHT22;38038;45.922;13.604;2023-09-30T09:10:06;21.20;99.90
52024;DHT22;38038;45.922;13.604;2023-09-30T09:12:34;21.40;99.90
52024;DHT22;38038;45.922;13.604;2023-09-30T09:15:00;21.50;99.90
52024;DHT22;38038;45.922;13.604;2023-09-30T09:17:43;21.40;99.90
52024;DHT22;38038;45.922;13.604;2023-09-30T09:20:11;21.30;99.90
52024;DHT22;38038;45.922;13.604;2023-09-30T09:22:43;21.40;99.90
52024;DHT22;38038;45.922;13.604;2023-09-30T09:25:10;21.50;99.90
52024;DHT22;38038;45.922;13.604;2023-09-30T09:27:36;21.50;99.90
52024;DHT22;38038;45.922;13.604;2023-09-30T09:30:25;21.60;99.90
52024;DHT22;38038;45.922;13.604;2023-09-30T09:35:28;21.70;99.90
52024;DHT22;38038;45.922;13.604;2023-09-30T09:38:02;21.70;99.90
52024;DHT22;38038;45.922;13.604;2023-09-30T09:40:35;21.80;99.90
52024;DHT22;38038;45.922;13.604;2023-09-30T09:43:04;21.80;99.90
52024;DHT22;38038;45.922;13.604;2023-09-30T09:45:33;22.00;99.90
52024;DHT22;38038;45.922;13.604;2023-09-30T09:47:59;22.10;99.90
52024;DHT22;38038;45.922;13.604;2023-09-30T09:50:25;22.10;99.90
52024;DHT22;38038;45.922;13.604;2023-09-30T09:52:53;22.10;99.90
52024;DHT22;38038;45.922;13.604;2023-09-30T09:55:25;22.00;99.90
52024;DHT22;38038;45.922;13.604;2023-09-30T09:57:53;22.10;99.90
52024;DHT22;38038;45.922;13.604;2023-09-30T10:00:21;22.30;99.90
52024;DHT22;38038;45.922;13.604;2023-09-30T10:02:48;22.70;99.90
52024;DHT22;38038;45.922;13.604;2023-09-30T10:05:15;22.70;99.90
52024;DHT22;38038;45.922;13.604;2023-09-30T10:07:55;22.80;99.90
52024;DHT22;38038;45.922;13.604;2023-09-30T10:10:23;22.90;99.90
52024;DHT22;38038;45.922;13.604;2023-09-30T10:12:50;23.00;99.90
52024;DHT22;38038;45.922;13.604;2023-09-30T10:18:12;23.10;99.90
52024;DHT22;38038;45.922;13.604;2023-09-30T10:20:39;23.20;99.30
52024;DHT22;38038;45.922;13.604;2023-09-30T10:25:46;23.20;98.30
52024;DHT22;38038;45.922;13.604;2023-09-30T10:28:34;23.40;98.70
52024;DHT22;38038;45.922;13.604;2023-09-30T10:31:10;23.50;99.20
52024;DHT22;38038;45.922;13.604;2023-09-30T10:36:37;23.50;97.90
52024;DHT22;38038;45.922;13.604;2023-09-30T10:39:04;23.50;99.70
52024;DHT22;38038;45.922;13.604;2023-09-30T10:46:52;23.60;98.70
52024;DHT22;38038;45.922;13.604;2023-09-30T10:51:57;24.20;97.70
52024;DHT22;38038;45.922;13.604;2023-09-30T10:54:24;24.30;97.70
52024;DHT22;38038;45.922;13.604;2023-09-30T10:56:50;24.30;98.40
52024;DHT22;38038;45.922;13.604;2023-09-30T10:59:22;24.40;98.40
52024;DHT22;38038;45.922;13.604;2023-09-30T11:01:50;24.40;97.80
52024;DHT22;38038;45.922;13.604;2023-09-30T11:04:16;24.60;97.80
52024;DHT22;38038;45.922;13.604;2023-09-30T11:06:42;24.60;97.70
52024;DHT22;38038;45.922;13.604;2023-09-30T11:09:08;24.60;97.60
52024;DHT22;38038;45.922;13.604;2023-09-30T11:11:42;24.70;97.10
52024;DHT22;38038;45.922;13.604;2023-09-30T11:14:21;24.80;97.10
52024;DHT22;38038;45.922;13.604;2023-09-30T11:16:50;24.80;98.40
52024;DHT22;38038;45.922;13.604;2023-09-30T11:19:16;25.00;97.90
52024;DHT22;38038;45.922;13.604;2023-09-30T11:21:42;25.00;97.30
52024;DHT22;38038;45.922;13.604;2023-09-30T11:24:13;25.00;98.80
52024;DHT22;38038;45.922;13.604;2023-09-30T11:26:40;25.00;97.90
52024;DHT22;38038;45.922;13.604;2023-09-30T11:29:11;25.10;97.60
52024;DHT22;38038;45.922;13.604;2023-09-30T11:31:39;25.30;97.30
52024;DHT22;38038;45.922;13.604;2023-09-30T11:34:05;25.40;98.40
52024;DHT22;38038;45.922;13.604;2023-09-30T11:36:35;25.40;98.00
52024;DHT22;38038;45.922;13.604;2023-09-30T11:39:01;25.60;97.40
52024;DHT22;38038;45.922;13.604;2023-09-30T11:41:38;25.60;98.30
52024;DHT22;38038;45.922;13.604;2023-09-30T11:44:07;25.70;97.10
52024;DHT22;38038;45.922;13.604;2023-09-30T11:46:56;25.70;98.10
52024;DHT22;38038;45.922;13.604;2023-09-30T11:49:37;25.90;96.60
52024;DHT22;38038;45.922;13.604;2023-09-30T11:52:11;26.00;96.80
52024;DHT22;38038;45.922;13.604;2023-09-30T11:54:38;26.10;95.80
52024;DHT22;38038;45.922;13.604;2023-09-30T11:57:07;26.10;96.20
52024;DHT22;38038;45.922;13.604;2023-09-30T11:59:35;26.10;96.70
52024;DHT22;38038;45.922;13.604;2023-09-30T12:02:02;26.20;96.10
52024;DHT22;38038;45.922;13.604;2023-09-30T12:04:29;26.30;95.20
52024;DHT22;38038;45.922;13.604;2023-09-30T12:06:55;26.30;94.80
52024;DHT22;38038;45.922;13.604;2023-09-30T12:09:21;26.30;94.90
52024;DHT22;38038;45.922;13.604;2023-09-30T12:11:52;26.20;94.50
52024;DHT22;38038;45.922;13.604;2023-09-30T12:14:22;26.10;94.40
52024;DHT22;38038;45.922;13.604;2023-09-30T12:16:48;26.30;94.20
52024;DHT22;38038;45.922;13.604;2023-09-30T12:19:14;26.20;94.50
52024;DHT22;38038;45.922;13.604;2023-09-30T12:21:41;26.20;94.50
52024;DHT22;38038;45.922;13.604;2023-09-30T12:24:07;26.20;94.00
52024;DHT22;38038;45.922;13.604;2023-09-30T12:26:35;26.20;94.00
52024;DHT22;38038;45.922;13.604;2023-09-30T12:29:02;26.20;94.20
52024;DHT22;38038;45.922;13.604;2023-09-30T12:31:28;26.20;94.10
52024;DHT22;38038;45.922;13.604;2023-09-30T12:33:54;26.20;94.20
52024;DHT22;38038;45.922;13.604;2023-09-30T12:36:21;26.30;94.60
52024;DHT22;38038;45.922;13.604;2023-09-30T12:38:47;26.30;94.30
52024;DHT22;38038;45.922;13.604;2023-09-30T12:41:13;26.30;93.90
52024;DHT22;38038;45.922;13.604;2023-09-30T12:43:40;26.30;94.30
52024;DHT22;38038;45.922;13.604;2023-09-30T12:46:08;26.30;93.80
52024;DHT22;38038;45.922;13.604;2023-09-30T12:48:34;26.30;93.90
52024;DHT22;38038;45.922;13.604;2023-09-30T12:51:00;26.30;94.70
52024;DHT22;38038;45.922;13.604;2023-09-30T12:53:27;26.30;94.70
52024;DHT22;38038;45.922;13.604;2023-09-30T12:55:53;26.30;94.60
52024;DHT22;38038;45.922;13.604;2023-09-30T12:58:19;26.30;94.30
52024;DHT22;38038;45.922;13.604;2023-09-30T13:00:45;26.30;94.40
52024;DHT22;38038;45.922;13.604;2023-09-30T13:03:11;26.20;94.30
52024;DHT22;38038;45.922;13.604;2023-09-30T13:05:38;26.30;94.10
52024;DHT22;38038;45.922;13.604;2023-09-30T13:08:04;26.20;94.30
52024;DHT22;38038;45.922;13.604;2023-09-30T13:10:29;26.10;94.20
52024;DHT22;38038;45.922;13.604;2023-09-30T13:12:55;26.10;94.40
52024;DHT22;38038;45.922;13.604;2023-09-30T13:15:21;26.10;94.40
52024;DHT22;38038;45.922;13.604;2023-09-30T13:17:48;26.10;94.60
52024;DHT22;38038;45.922;13.604;2023-09-30T13:20:14;26.10;94.70
52024;DHT22;38038;45.922;13.604;2023-09-30T13:22:40;26.10;94.70
52024;DHT22;38038;45.922;13.604;2023-09-30T13:25:06;26.10;94.40
52024;DHT22;38038;45.922;13.604;2023-09-30T13:27:33;26.10;94.50
52024;DHT22;38038;45.922;13.604;2023-09-30T13:30:00;26.10;94.30
52024;DHT22;38038;45.922;13.604;2023-09-30T13:32:27;26.10;94.70
52024;DHT22;38038;45.922;13.604;2023-09-30T13:34:53;26.10;94.60
52024;DHT22;38038;45.922;13.604;2023-09-30T13:37:19;26.10;94.30
52024;DHT22;38038;45.922;13.604;2023-09-30T13:39:45;26.10;94.60
52024;DHT22;38038;45.922;13.604;2023-09-30T13:42:11;26.10;94.30
52024;DHT22;38038;45.922;13.604;2023-09-30T13:44:37;26.10;94.10
52024;DHT22;38038;45.922;13.604;2023-09-30T13:47:03;26.10;94.30
52024;DHT22;38038;45.922;13.604;2023-09-30T13:49:28;26.10;94.20
52024;DHT22;38038;45.922;13.604;2023-09-30T13:51:56;26.10;94.30
52024;DHT22;38038;45.922;13.604;2023-09-30T13:54:21;26.20;94.10
52024;DHT22;38038;45.922;13.604;2023-09-30T13:56:47;26.20;94.00
52024;DHT22;38038;45.922;13.604;2023-09-30T13:59:13;26.20;94.30
52024;DHT22;38038;45.922;13.604;2023-09-30T14:01:39;26.20;94.30
52024;DHT22;38038;45.922;13.604;2023-09-30T14:04:10;26.10;94.50
52024;DHT22;38038;45.922;13.604;2023-09-30T14:06:35;26.10;94.00
52024;DHT22;38038;45.922;13.604;2023-09-30T14:09:02;26.10;94.30
52024;DHT22;38038;45.922;13.604;2023-09-30T14:11:28;26.10;95.00
52024;DHT22;38038;45.922;13.604;2023-09-30T14:13:56;26.10;94.60
52024;DHT22;38038;45.922;13.604;2023-09-30T14:16:24;26.10;94.80
52024;DHT22;38038;45.922;13.604;2023-09-30T14:18:51;26.10;94.70
52024;DHT22;38038;45.922;13.604;2023-09-30T14:21:17;26.10;94.80
52024;DHT22;38038;45.922;13.604;2023-09-30T14:23:44;26.00;94.90
52024;DHT22;38038;45.922;13.604;2023-09-30T14:26:10;26.00;94.20
52024;DHT22;38038;45.922;13.604;2023-09-30T14:28:37;25.90;94.90
52024;DHT22;38038;45.922;13.604;2023-09-30T14:31:04;25.90;94.90
52024;DHT22;38038;45.922;13.604;2023-09-30T14:33:29;26.00;95.10
52024;DHT22;38038;45.922;13.604;2023-09-30T14:35:55;25.90;95.20
52024;DHT22;38038;45.922;13.604;2023-09-30T14:38:22;25.90;95.10
52024;DHT22;38038;45.922;13.604;2023-09-30T14:40:48;25.70;95.20
52024;DHT22;38038;45.922;13.604;2023-09-30T14:43:15;25.50;95.00
52024;DHT22;38038;45.922;13.604;2023-09-30T14:45:41;25.40;95.90
52024;DHT22;38038;45.922;13.604;2023-09-30T14:48:08;25.20;95.50
52024;DHT22;38038;45.922;13.604;2023-09-30T14:50:35;25.20;95.80
52024;DHT22;38038;45.922;13.604;2023-09-30T14:53:02;25.20;95.90
52024;DHT22;38038;45.922;13.604;2023-09-30T14:55:28;25.20;95.80
52024;DHT22;38038;45.922;13.604;2023-09-30T14:57:56;25.20;96.10
52024;DHT22;38038;45.922;13.604;2023-09-30T15:00:22;25.20;96.20
52024;DHT22;38038;45.922;13.604;2023-09-30T15:02:50;25.10;96.00
52024;DHT22;38038;45.922;13.604;2023-09-30T15:05:16;25.20;95.70
52024;DHT22;38038;45.922;13.604;2023-09-30T15:07:42;25.20;95.70
52024;DHT22;38038;45.922;13.604;2023-09-30T15:10:08;25.20;95.50
52024;DHT22;38038;45.922;13.604;2023-09-30T15:12:35;25.20;96.10
52024;DHT22;38038;45.922;13.604;2023-09-30T15:15:01;25.20;95.80
52024;DHT22;38038;45.922;13.604;2023-09-30T15:17:27;25.20;96.20
52024;DHT22;38038;45.922;13.604;2023-09-30T15:19:55;25.20;95.80
52024;DHT22;38038;45.922;13.604;2023-09-30T15:22:21;25.20;95.90
52024;DHT22;38038;45.922;13.604;2023-09-30T15:24:46;25.20;96.00
52024;DHT22;38038;45.922;13.604;2023-09-30T15:27:12;25.20;96.20
52024;DHT22;38038;45.922;13.604;2023-09-30T15:29:38;25.20;96.00
52024;DHT22;38038;45.922;13.604;2023-09-30T15:32:04;25.20;96.00
52024;DHT22;38038;45.922;13.604;2023-09-30T15:34:30;25.20;95.80